Time;durP1;ratioP1;P1;durP2;ratioP2;P2;SDS_P1;SDS_P2;PMS_P1;PMS_P2;Temp;Humidity;BMP_temperature;BMP_pressure;BME280_temperature;BME280_humidity;BME280_pressure;Samples;Min_cycle;Max_cycle;Signal;HPM_P1;HPM_P2
2021/12/28 00:01:12;;;;;;;64.07;9.93;;;9.90;99.90;;;;;;5074900;28;20116;-80
2021/12/28 00:03:43;;;;;;;57.38;7.90;;;10.00;99.90;;;;;;5075095;28;20099;-80
2021/12/28 00:06:10;;;;;;;63.42;9.43;;;9.90;99.90;;;;;;5073495;28;20487;-81
2021/12/28 00:08:35;;;;;;;50.85;8.30;;;10.00;99.90;;;;;;5075347;28;20020;-80
2021/12/28 00:11:03;;;;;;;50.05;7.80;;;10.00;99.90;;;;;;5074984;28;20473;-80
2021/12/28 00:13:30;;;;;;;54.60;8.80;;;10.00;99.90;;;;;;5075020;28;20465;-80
2021/12/28 00:18:24;;;;;;;53.90;8.05;;;10.00;99.90;;;;;;5074804;28;20029;-80
2021/12/28 00:20:54;;;;;;;53.72;8.80;;;10.00;99.90;;;;;;5073732;28;20085;-80
2021/12/28 00:23:24;;;;;;;41.55;7.63;;;10.00;99.90;;;;;;5074712;28;20508;-79
2021/12/28 00:25:52;;;;;;;67.20;9.93;;;10.10;99.90;;;;;;5074717;28;20102;-80
2021/12/28 00:28:19;;;;;;;46.45;8.68;;;10.10;99.90;;;;;;5074358;28;20489;-80
2021/12/28 00:30:45;;;;;;;61.40;8.27;;;10.10;99.90;;;;;;5073374;28;20055;-80
2021/12/28 00:33:11;;;;;;;48.33;8.85;;;10.10;99.90;;;;;;5074622;28;20051;-80
2021/12/28 00:35:39;;;;;;;57.30;8.48;;;10.10;99.90;;;;;;5074576;28;20024;-80
2021/12/28 00:38:07;;;;;;;47.45;7.95;;;10.10;99.90;;;;;;5073102;28;20039;-79
2021/12/28 00:40:34;;;;;;;55.03;9.55;;;10.10;99.90;;;;;;5074572;28;20381;-80
2021/12/28 00:43:00;;;;;;;54.08;8.75;;;10.20;99.90;;;;;;5074101;28;20028;-81
2021/12/28 00:45:26;;;;;;;53.35;8.43;;;10.20;99.90;;;;;;5074309;28;20384;-80
2021/12/28 00:47:52;;;;;;;51.22;8.25;;;10.20;99.90;;;;;;5074359;28;20158;-80
2021/12/28 00:50:19;;;;;;;51.17;8.20;;;10.20;99.90;;;;;;5074529;28;20504;-80
2021/12/28 00:52:46;;;;;;;65.65;9.77;;;10.10;99.90;;;;;;5074206;28;20064;-81
2021/12/28 00:55:13;;;;;;;59.00;8.50;;;10.20;99.90;;;;;;5072975;28;20041;-80
2021/12/28 00:57:39;;;;;;;51.47;7.63;;;10.10;99.90;;;;;;5073861;28;20031;-80
2021/12/28 01:00:08;;;;;;;59.15;9.70;;;10.10;99.90;;;;;;5074150;28;20118;-81
2021/12/28 01:02:34;;;;;;;48.13;7.70;;;10.10;99.90;;;;;;5074008;28;20017;-81
2021/12/28 01:05:00;;;;;;;68.72;8.38;;;10.20;99.90;;;;;;5073940;28;20028;-80
2021/12/28 01:07:25;;;;;;;53.30;9.05;;;10.20;99.90;;;;;;5073884;28;20033;-81
2021/12/28 01:09:51;;;;;;;61.75;8.32;;;10.20;99.90;;;;;;5073771;28;20027;-81
2021/12/28 01:12:17;;;;;;;60.00;9.15;;;10.30;99.90;;;;;;5073472;28;20043;-80
2021/12/28 01:14:42;;;;;;;51.15;8.70;;;10.30;99.90;;;;;;5073717;28;20031;-79
2021/12/28 01:17:08;;;;;;;55.78;8.18;;;10.30;99.90;;;;;;5073644;28;20512;-80
2021/12/28 01:19:34;;;;;;;63.40;9.15;;;10.30;99.90;;;;;;5073219;28;20405;-79
2021/12/28 01:22:03;;;;;;;61.55;8.07;;;10.30;99.90;;;;;;5073574;28;20024;-79
2021/12/28 01:24:30;;;;;;;60.50;7.65;;;10.30;99.90;;;;;;5073761;28;20377;-79
2021/12/28 01:26:57;;;;;;;64.93;11.18;;;10.30;99.90;;;;;;5073143;28;20074;-80
2021/12/28 01:29:23;;;;;;;57.55;8.48;;;10.40;99.90;;;;;;5073469;28;20484;-80
2021/12/28 01:31:49;;;;;;;56.33;8.90;;;10.30;99.90;;;;;;5073351;28;20036;-79
2021/12/28 01:34:15;;;;;;;65.68;8.70;;;10.40;99.90;;;;;;5073387;28;20032;-80
2021/12/28 01:36:40;;;;;;;58.70;9.80;;;10.40;99.90;;;;;;5073342;28;20040;-80
2021/12/28 01:39:08;;;;;;;62.75;8.43;;;10.40;99.90;;;;;;5073276;28;20107;-80
2021/12/28 01:41:34;;;;;;;59.38;8.75;;;10.40;99.90;;;;;;5073024;28;20024;-81
2021/12/28 01:44:07;;;;;;;64.03;9.43;;;10.50;99.90;;;;;;5073465;28;20032;-81
2021/12/28 01:46:34;;;;;;;65.25;9.07;;;10.50;99.90;;;;;;5072010;28;20029;-81
2021/12/28 01:49:01;;;;;;;55.42;8.43;;;10.50;99.90;;;;;;5073239;28;20028;-81
2021/12/28 01:51:27;;;;;;;66.45;8.93;;;10.50;99.90;;;;;;5053464;28;20021;-78
2021/12/28 01:53:56;;;;;;;61.13;8.07;;;10.40;99.90;;;;;;5052962;28;20037;-81
2021/12/28 01:56:25;;;;;;;56.85;7.95;;;10.40;99.90;;;;;;5052689;28;20493;-81
2021/12/28 01:58:52;;;;;;;70.38;9.40;;;10.40;99.90;;;;;;5053102;28;20104;-81
2021/12/28 02:01:18;;;;;;;54.40;8.27;;;10.30;99.90;;;;;;5053119;28;20033;-80
2021/12/28 02:03:44;;;;;;;54.90;8.40;;;10.30;99.90;;;;;;5051570;28;20021;-80
2021/12/28 02:06:11;;;;;;;54.78;9.02;;;10.30;99.90;;;;;;5053386;28;20096;-80
2021/12/28 02:08:38;;;;;;;55.15;8.35;;;10.30;99.90;;;;;;5056674;28;20029;-81
2021/12/28 02:11:04;;;;;;;58.30;7.72;;;10.30;99.90;;;;;;5071455;28;20090;-80
2021/12/28 02:13:30;;;;;;;67.07;9.15;;;10.30;99.90;;;;;;5072698;28;20036;-80
2021/12/28 02:15:57;;;;;;;49.08;7.68;;;10.40;99.90;;;;;;5072909;28;20127;-81
2021/12/28 02:18:25;;;;;;;51.67;7.63;;;10.40;99.90;;;;;;5072753;28;20028;-81
2021/12/28 02:20:52;;;;;;;54.78;8.23;;;10.40;99.90;;;;;;5072764;28;20123;-81
2021/12/28 02:23:18;;;;;;;49.20;7.32;;;10.40;99.90;;;;;;5072907;28;20487;-80
2021/12/28 02:25:44;;;;;;;52.05;8.73;;;10.40;99.90;;;;;;5072364;28;20457;-79
2021/12/28 02:28:12;;;;;;;54.78;7.47;;;10.40;99.90;;;;;;5072781;28;20078;-80
2021/12/28 02:30:40;;;;;;;44.45;6.95;;;10.40;99.90;;;;;;5075122;28;20111;-80
2021/12/28 02:33:07;;;;;;;51.53;8.38;;;10.40;99.90;;;;;;5075679;28;20030;-81
2021/12/28 02:35:33;;;;;;;60.30;7.50;;;10.50;99.90;;;;;;5076673;28;20041;-80
2021/12/28 02:37:59;;;;;;;40.65;6.60;;;10.60;99.90;;;;;;5076924;28;20051;-80
2021/12/28 02:40:29;;;;;;;43.60;9.05;;;10.50;99.90;;;;;;5076534;28;20464;-81
2021/12/28 02:42:57;;;;;;;60.65;8.73;;;10.60;99.90;;;;;;5076781;28;20051;-79
2021/12/28 02:45:29;;;;;;;55.00;7.15;;;10.50;99.90;;;;;;5076541;28;20534;-80
2021/12/28 02:47:55;;;;;;;38.30;5.68;;;10.60;99.90;;;;;;5076768;28;20033;-81
2021/12/28 02:50:31;;;;;;;43.10;6.57;;;10.60;99.90;;;;;;5076473;28;20102;-78
2021/12/28 02:52:58;;;;;;;26.98;5.43;;;10.50;99.90;;;;;;5076572;28;20119;-80
2021/12/28 02:55:31;;;;;;;38.17;5.82;;;10.50;99.90;;;;;;5074888;28;20032;-80
2021/12/28 02:58:01;;;;;;;43.90;5.95;;;10.50;99.90;;;;;;5075377;28;20036;-80
2021/12/28 03:00:36;;;;;;;38.58;5.10;;;10.60;99.90;;;;;;5075169;28;20037;-80
2021/12/28 03:03:06;;;;;;;44.38;6.70;;;10.60;99.90;;;;;;5076291;28;20021;-81
2021/12/28 03:05:32;;;;;;;33.08;6.20;;;10.60;99.90;;;;;;5075060;28;20044;-81
2021/12/28 03:07:58;;;;;;;28.80;5.97;;;10.50;99.90;;;;;;5076206;28;20119;-81
2021/12/28 03:10:24;;;;;;;43.70;5.80;;;10.50;99.90;;;;;;5076156;28;20060;-81
2021/12/28 03:12:50;;;;;;;34.15;4.85;;;10.50;99.90;;;;;;5058182;28;20030;-80
2021/12/28 03:15:15;;;;;;;29.27;4.75;;;10.50;99.90;;;;;;5076107;28;20093;-80
2021/12/28 03:17:41;;;;;;;29.65;3.97;;;10.50;99.90;;;;;;5076103;28;20069;-80
2021/12/28 03:20:12;;;;;;;35.75;6.18;;;10.50;99.90;;;;;;5074533;28;20124;-81
2021/12/28 03:22:38;;;;;;;27.20;4.45;;;10.50;99.90;;;;;;5075564;28;20017;-80
2021/12/28 03:25:05;;;;;;;30.60;4.47;;;10.50;99.90;;;;;;5075884;28;20087;-81
2021/12/28 03:27:31;;;;;;;28.20;4.68;;;10.40;99.90;;;;;;5054609;28;20036;-80
2021/12/28 03:29:57;;;;;;;27.00;3.90;;;10.40;99.90;;;;;;5055738;28;20062;-80
2021/12/28 03:32:23;;;;;;;36.03;4.90;;;10.40;99.90;;;;;;5054729;28;20025;-80
2021/12/28 03:34:49;;;;;;;37.22;5.20;;;10.30;99.90;;;;;;5054368;28;20083;-80
2021/12/28 03:37:14;;;;;;;30.73;4.63;;;10.40;99.90;;;;;;5055371;28;20514;-80
2021/12/28 03:39:40;;;;;;;23.45;4.68;;;10.40;99.90;;;;;;5055752;28;20059;-80
2021/12/28 03:42:06;;;;;;;30.77;4.72;;;10.30;99.90;;;;;;5055162;28;20033;-80
2021/12/28 03:44:32;;;;;;;28.27;4.32;;;10.30;99.90;;;;;;5054287;28;20033;-80
2021/12/28 03:46:58;;;;;;;24.90;4.43;;;10.40;99.90;;;;;;5055432;28;20099;-80
2021/12/28 03:49:23;;;;;;;20.90;4.05;;;10.40;99.90;;;;;;5055625;28;20474;-79
2021/12/28 03:51:50;;;;;;;26.55;4.57;;;10.40;99.90;;;;;;5055151;28;20099;-80
2021/12/28 03:54:16;;;;;;;27.27;4.22;;;10.40;99.90;;;;;;5055660;28;20099;-80
2021/12/28 03:56:41;;;;;;;29.58;5.13;;;10.40;99.90;;;;;;5037328;28;20573;-80
2021/12/28 03:59:07;;;;;;;32.10;5.00;;;10.40;99.90;;;;;;5055518;28;20025;-80
2021/12/28 04:01:33;;;;;;;22.65;4.57;;;10.40;99.90;;;;;;5055418;28;20428;-80
2021/12/28 04:03:59;;;;;;;22.65;4.60;;;10.40;99.90;;;;;;5055167;28;20112;-80
2021/12/28 04:06:25;;;;;;;28.75;5.20;;;10.40;99.90;;;;;;5054919;28;20029;-79
2021/12/28 04:08:51;;;;;;;27.75;5.50;;;10.40;99.90;;;;;;5060882;28;20184;-80
2021/12/28 04:13:48;;;;;;;22.95;4.38;;;10.40;99.90;;;;;;5075099;28;20476;-80
2021/12/28 04:16:15;;;;;;;19.95;4.47;;;10.40;99.90;;;;;;5074962;28;20093;-81
2021/12/28 04:18:41;;;;;;;22.80;4.38;;;10.40;99.90;;;;;;5074966;28;20464;-80
2021/12/28 04:21:08;;;;;;;22.98;4.35;;;10.40;99.90;;;;;;5074618;28;20039;-81
2021/12/28 04:23:34;;;;;;;18.63;3.95;;;10.40;99.90;;;;;;5074830;28;20012;-81
2021/12/28 04:26:00;;;;;;;19.23;3.80;;;10.40;99.90;;;;;;5073700;28;20036;-80
2021/12/28 04:28:26;;;;;;;21.25;4.95;;;10.30;99.90;;;;;;5074540;28;20381;-81
2021/12/28 04:30:53;;;;;;;16.95;4.00;;;10.30;99.90;;;;;;5073512;28;20101;-81
2021/12/28 04:33:19;;;;;;;20.17;4.40;;;10.30;99.90;;;;;;5074557;28;20078;-80
2021/12/28 04:35:45;;;;;;;21.73;4.93;;;10.30;99.90;;;;;;5074269;28;20443;-81
2021/12/28 04:38:10;;;;;;;17.88;4.13;;;10.30;99.90;;;;;;5073273;28;20124;-82
2021/12/28 04:40:37;;;;;;;26.75;4.40;;;10.30;99.90;;;;;;5074619;28;20078;-81
2021/12/28 04:43:02;;;;;;;23.20;4.28;;;10.30;99.90;;;;;;5074250;28;20025;-81
2021/12/28 04:45:29;;;;;;;16.58;4.78;;;10.30;99.90;;;;;;5074604;28;20097;-81
2021/12/28 04:47:54;;;;;;;27.25;5.07;;;10.20;99.90;;;;;;5074190;28;20481;-81
2021/12/28 04:50:20;;;;;;;17.85;4.63;;;10.30;99.90;;;;;;5074113;28;20032;-81
2021/12/28 04:52:46;;;;;;;18.38;3.97;;;10.30;99.90;;;;;;5073955;28;20020;-80
2021/12/28 04:55:16;;;;;;;26.55;5.78;;;10.30;99.90;;;;;;5074315;28;20123;-81
2021/12/28 04:57:42;;;;;;;16.45;3.90;;;10.20;99.90;;;;;;5074256;28;20033;-80
2021/12/28 05:00:12;;;;;;;19.77;4.88;;;10.30;99.90;;;;;;5074780;28;20043;-80
2021/12/28 05:02:37;;;;;;;21.92;4.07;;;10.30;99.90;;;;;;5073841;28;20446;-79
2021/12/28 05:05:04;;;;;;;20.17;4.72;;;10.30;99.90;;;;;;5073595;28;20088;-80
2021/12/28 05:07:30;;;;;;;16.90;4.68;;;10.30;99.90;;;;;;5073907;28;20035;-80
2021/12/28 05:09:58;;;;;;;17.80;5.03;;;10.30;99.90;;;;;;5073886;28;20424;-80
2021/12/28 05:12:28;;;;;;;20.77;5.18;;;10.30;99.90;;;;;;5072796;28;20056;-80
2021/12/28 05:14:53;;;;;;;25.08;4.97;;;10.20;99.90;;;;;;5072252;28;20043;-80
2021/12/28 05:17:19;;;;;;;16.17;4.25;;;10.20;99.90;;;;;;5073810;28;20032;-80
2021/12/28 05:19:45;;;;;;;14.65;3.92;;;10.20;99.90;;;;;;5073335;28;20386;-78
2021/12/28 05:22:12;;;;;;;27.10;4.47;;;10.10;99.90;;;;;;5072630;28;20023;-80
2021/12/28 05:24:39;;;;;;;19.27;3.72;;;10.10;99.90;;;;;;5072208;28;20032;-80
2021/12/28 05:27:05;;;;;;;17.98;3.75;;;10.10;99.90;;;;;;5073435;28;20032;-80
2021/12/28 05:29:32;;;;;;;16.77;4.05;;;10.10;99.90;;;;;;5073456;28;20034;-80
2021/12/28 05:31:58;;;;;;;10.90;3.33;;;10.10;99.90;;;;;;5073619;28;20032;-80
2021/12/28 05:34:24;;;;;;;13.63;3.80;;;10.10;99.90;;;;;;5072029;28;20112;-81
2021/12/28 05:36:49;;;;;;;16.45;3.70;;;10.10;99.90;;;;;;5073467;28;20036;-79
2021/12/28 05:39:15;;;;;;;17.95;4.03;;;10.10;99.90;;;;;;5073375;28;20051;-80
2021/12/28 05:41:41;;;;;;;16.73;3.90;;;10.10;99.90;;;;;;5073352;28;20103;-79
2021/12/28 05:44:07;;;;;;;12.93;3.97;;;10.10;99.90;;;;;;5073200;28;20427;-80
2021/12/28 05:46:33;;;;;;;9.80;3.97;;;10.10;99.90;;;;;;5073456;28;20044;-79
2021/12/28 05:48:58;;;;;;;19.80;4.45;;;10.10;99.90;;;;;;5072978;28;20437;-80
2021/12/28 05:51:24;;;;;;;12.80;3.97;;;10.20;99.90;;;;;;5073222;28;20392;-80
2021/12/28 05:53:50;;;;;;;23.70;4.78;;;10.20;99.90;;;;;;5073079;28;20032;-80
2021/12/28 05:56:16;;;;;;;12.45;3.97;;;10.20;99.90;;;;;;5073048;28;20032;-80
2021/12/28 05:58:41;;;;;;;18.45;4.18;;;10.30;99.90;;;;;;5073057;28;20518;-76
2021/12/28 06:01:08;;;;;;;20.98;6.13;;;10.30;99.90;;;;;;5073135;28;20047;-79
2021/12/28 06:03:34;;;;;;;14.98;4.85;;;10.20;99.90;;;;;;5072687;28;20036;-79
2021/12/28 06:06:00;;;;;;;15.68;4.15;;;10.20;99.90;;;;;;5072719;28;20029;-80
2021/12/28 06:08:25;;;;;;;13.40;3.85;;;10.20;99.90;;;;;;5072816;28;20033;-79
2021/12/28 06:10:51;;;;;;;22.60;4.25;;;10.10;99.90;;;;;;5055013;28;20033;-80
2021/12/28 06:13:17;;;;;;;14.40;4.07;;;10.20;99.90;;;;;;5073042;28;20032;-79
2021/12/28 06:15:43;;;;;;;21.30;4.65;;;10.10;99.90;;;;;;5054788;28;20043;-80
2021/12/28 06:18:09;;;;;;;17.13;4.57;;;10.10;99.90;;;;;;5071357;28;20025;-80
2021/12/28 06:20:35;;;;;;;18.58;5.15;;;10.20;99.90;;;;;;5072594;28;20105;-79
2021/12/28 06:23:00;;;;;;;16.45;6.15;;;10.20;99.90;;;;;;5072773;28;20020;-79
2021/12/28 06:25:26;;;;;;;13.80;5.53;;;10.10;99.90;;;;;;5072806;28;20086;-80
2021/12/28 06:27:52;;;;;;;11.57;4.57;;;10.10;99.90;;;;;;5072730;28;20028;-79
2021/12/28 06:30:18;;;;;;;11.88;4.93;;;10.10;99.90;;;;;;5054619;28;20031;-81
2021/12/28 06:32:44;;;;;;;12.68;4.72;;;10.10;99.90;;;;;;5072860;28;20028;-80
2021/12/28 06:35:11;;;;;;;16.40;4.72;;;10.10;99.90;;;;;;5071470;28;20036;-80
2021/12/28 06:37:37;;;;;;;27.52;5.97;;;10.20;99.90;;;;;;5072777;28;20025;-80
2021/12/28 06:40:05;;;;;;;18.70;5.82;;;10.10;99.90;;;;;;5071044;28;20040;-80
2021/12/28 06:42:31;;;;;;;18.38;5.85;;;10.10;99.90;;;;;;5072785;28;20074;-81
2021/12/28 06:44:56;;;;;;;19.10;6.20;;;10.10;99.90;;;;;;5072579;28;20477;-81
2021/12/28 06:47:22;;;;;;;17.90;6.38;;;10.10;99.90;;;;;;5072557;28;20158;-81
2021/12/28 06:49:48;;;;;;;16.83;5.63;;;10.10;99.90;;;;;;5071507;28;20465;-80
2021/12/28 06:52:14;;;;;;;16.63;6.65;;;10.10;99.90;;;;;;5072533;28;20105;-79
2021/12/28 06:54:39;;;;;;;15.85;6.10;;;10.10;99.90;;;;;;5054505;28;20454;-79
2021/12/28 06:57:08;;;;;;;20.83;6.70;;;10.10;99.90;;;;;;5072688;28;20032;-80
2021/12/28 06:59:43;;;;;;;20.80;6.70;;;10.10;99.90;;;;;;5072186;28;20049;-80
2021/12/28 07:02:16;;;;;;;13.20;7.40;;;10.10;99.90;;;;;;5072466;28;20040;-81
2021/12/28 07:04:42;;;;;;;17.52;7.03;;;10.10;99.90;;;;;;5071106;28;20082;-81
2021/12/28 07:07:08;;;;;;;18.02;6.57;;;10.10;99.90;;;;;;5072441;28;20489;-81
2021/12/28 07:09:35;;;;;;;14.52;6.55;;;10.20;99.90;;;;;;5071001;28;20507;-80
2021/12/28 07:12:01;;;;;;;15.32;6.68;;;10.20;99.90;;;;;;5072410;28;20024;-81
2021/12/28 07:14:28;;;;;;;11.60;7.13;;;10.20;99.90;;;;;;5072125;28;20031;-81
2021/12/28 07:16:55;;;;;;;10.80;6.60;;;10.10;99.90;;;;;;5071949;28;20044;-80
2021/12/28 07:19:21;;;;;;;13.30;6.70;;;10.20;99.90;;;;;;5075864;28;20505;-80
2021/12/28 07:21:47;;;;;;;14.70;6.43;;;10.20;99.90;;;;;;5058055;28;20037;-80
2021/12/28 07:24:13;;;;;;;13.30;6.57;;;10.20;99.90;;;;;;5076257;28;20028;-80
2021/12/28 07:26:40;;;;;;;16.60;7.03;;;10.20;99.90;;;;;;5075604;28;20397;-80
2021/12/28 07:29:06;;;;;;;13.55;7.60;;;10.20;99.90;;;;;;5074397;28;20036;-79
2021/12/28 07:31:32;;;;;;;18.83;7.57;;;10.20;99.90;;;;;;5074615;28;20085;-81
2021/12/28 07:33:58;;;;;;;11.57;6.53;;;10.20;99.90;;;;;;5075651;28;20039;-80
2021/12/28 07:36:24;;;;;;;17.73;6.18;;;10.30;99.90;;;;;;5057695;28;20029;-81
2021/12/28 07:38:50;;;;;;;11.27;5.95;;;10.30;99.90;;;;;;5075720;28;20041;-79
2021/12/28 07:41:15;;;;;;;12.57;6.10;;;10.30;99.90;;;;;;5074247;28;20028;-79
2021/12/28 07:43:41;;;;;;;9.80;6.75;;;10.40;99.90;;;;;;5075541;28;20028;-79
2021/12/28 07:46:07;;;;;;;14.07;5.90;;;10.40;99.90;;;;;;5074286;28;20021;-80
2021/12/28 07:48:33;;;;;;;9.90;6.07;;;10.30;99.90;;;;;;5075563;28;20033;-80
2021/12/28 07:50:59;;;;;;;10.45;5.47;;;10.30;99.90;;;;;;5074220;28;20183;-77
2021/12/28 07:53:24;;;;;;;14.45;5.30;;;10.30;99.90;;;;;;5074552;28;20115;-78
2021/12/28 07:55:50;;;;;;;11.73;5.53;;;10.40;99.90;;;;;;5073942;28;20049;-79
2021/12/28 07:58:16;;;;;;;13.57;6.13;;;10.30;99.90;;;;;;5074130;28;20031;-79
2021/12/28 08:00:42;;;;;;;11.35;6.10;;;10.30;99.90;;;;;;5075133;28;20064;-80
2021/12/28 08:03:08;;;;;;;10.30;6.00;;;10.40;99.90;;;;;;5075165;28;20028;-81
2021/12/28 08:05:35;;;;;;;21.40;5.20;;;10.40;99.90;;;;;;5074182;28;20028;-81
2021/12/28 08:08:02;;;;;;;8.13;5.18;;;10.40;99.90;;;;;;5075155;28;20431;-80
2021/12/28 08:10:28;;;;;;;7.82;5.90;;;10.40;99.90;;;;;;5075276;28;20024;-80
2021/12/28 08:12:56;;;;;;;12.05;6.15;;;10.40;99.90;;;;;;5074484;28;20031;-82
2021/12/28 08:15:23;;;;;;;10.02;5.90;;;10.50;99.90;;;;;;5074956;28;20044;-80
2021/12/28 08:17:49;;;;;;;12.15;5.47;;;10.50;99.90;;;;;;5074895;28;20017;-81
2021/12/28 08:20:16;;;;;;;12.43;5.78;;;10.50;99.90;;;;;;5073613;28;20519;-80
2021/12/28 08:22:42;;;;;;;13.32;5.45;;;10.50;99.90;;;;;;5073703;28;20377;-79
2021/12/28 08:25:13;;;;;;;6.75;5.55;;;10.50;99.90;;;;;;5074643;28;20025;-79
2021/12/28 08:27:40;;;;;;;6.88;5.20;;;10.50;99.90;;;;;;5074081;28;20036;-80
2021/12/28 08:30:08;;;;;;;8.43;5.30;;;10.60;99.90;;;;;;5074720;28;20043;-79
2021/12/28 08:32:34;;;;;;;11.70;6.13;;;10.50;99.90;;;;;;5074726;28;20477;-80
2021/12/28 08:35:00;;;;;;;10.68;5.50;;;10.50;99.90;;;;;;5074553;28;20040;-81
2021/12/28 08:37:27;;;;;;;15.35;7.40;;;10.50;99.90;;;;;;5074437;28;20077;-79
2021/12/28 08:39:53;;;;;;;10.73;5.95;;;10.60;99.90;;;;;;5074591;28;20027;-80
2021/12/28 08:42:21;;;;;;;8.57;5.30;;;10.60;99.90;;;;;;5072972;28;20033;-79
2021/12/28 08:44:47;;;;;;;9.85;5.60;;;10.60;99.90;;;;;;5073260;28;20095;-79
2021/12/28 08:47:13;;;;;;;10.32;5.63;;;10.60;99.90;;;;;;5074149;28;20024;-80
2021/12/28 08:49:39;;;;;;;9.77;5.55;;;10.60;99.90;;;;;;5074445;28;20496;-81
2021/12/28 08:52:05;;;;;;;9.20;5.43;;;10.60;99.90;;;;;;5056181;28;20033;-79
2021/12/28 08:54:31;;;;;;;7.13;5.18;;;10.60;99.90;;;;;;5074181;28;20459;-81
2021/12/28 08:56:57;;;;;;;9.02;4.63;;;10.60;99.90;;;;;;5073642;28;20127;-80
2021/12/28 08:59:23;;;;;;;5.97;4.18;;;10.60;99.90;;;;;;5074120;28;20036;-81
2021/12/28 09:01:49;;;;;;;7.90;5.20;;;10.60;99.90;;;;;;5072811;28;20142;-80
2021/12/28 09:04:17;;;;;;;5.88;3.53;;;10.70;99.90;;;;;;5072544;28;20561;-80
2021/12/28 09:06:44;;;;;;;8.20;3.47;;;10.70;99.90;;;;;;5073874;28;20025;-81
2021/12/28 09:09:10;;;;;;;5.00;3.22;;;10.70;99.90;;;;;;5073696;28;20469;-80
2021/12/28 09:11:36;;;;;;;5.60;3.75;;;10.60;99.90;;;;;;5074315;28;20032;-80
2021/12/28 09:14:02;;;;;;;4.38;3.63;;;10.60;99.90;;;;;;5074557;28;20550;-80
2021/12/28 09:16:28;;;;;;;6.70;4.57;;;10.60;99.90;;;;;;5073700;28;20028;-79
2021/12/28 09:18:54;;;;;;;6.55;5.20;;;10.60;99.90;;;;;;5073424;28;20432;-80
2021/12/28 09:21:19;;;;;;;9.90;5.43;;;10.60;99.90;;;;;;5072296;28;20028;-79
2021/12/28 09:23:45;;;;;;;6.43;5.00;;;10.70;99.90;;;;;;5073552;28;20024;-80
2021/12/28 09:26:11;;;;;;;9.20;5.47;;;10.70;99.90;;;;;;5072056;28;20037;-80
2021/12/28 09:28:36;;;;;;;10.68;4.90;;;10.70;99.90;;;;;;5073338;28;20035;-80
2021/12/28 09:31:02;;;;;;;10.30;4.68;;;10.80;99.90;;;;;;5073488;28;20036;-80
2021/12/28 09:33:28;;;;;;;9.27;4.70;;;10.70;99.90;;;;;;5073135;28;20055;-78
2021/12/28 09:35:55;;;;;;;9.40;4.13;;;10.70;99.90;;;;;;5073398;28;20048;-80
2021/12/28 09:38:22;;;;;;;11.25;3.95;;;10.80;99.90;;;;;;5073333;28;20051;-79
2021/12/28 09:40:50;;;;;;;12.60;3.47;;;10.80;99.90;;;;;;5072279;28;20057;-80
2021/12/28 09:43:16;;;;;;;8.43;2.50;;;10.80;99.90;;;;;;5073273;28;20473;-80
2021/12/28 09:45:41;;;;;;;6.25;2.92;;;10.90;99.90;;;;;;5073359;28;20020;-80
2021/12/28 09:48:09;;;;;;;8.32;2.25;;;11.00;99.90;;;;;;5072976;28;20044;-80
2021/12/28 09:50:35;;;;;;;13.32;2.00;;;11.10;99.90;;;;;;5073181;28;20111;-79
2021/12/28 09:53:02;;;;;;;8.18;1.80;;;11.00;99.90;;;;;;5071794;28;20035;-80
2021/12/28 09:55:29;;;;;;;6.72;1.90;;;11.00;99.90;;;;;;5072843;28;20388;-80
2021/12/28 09:57:57;;;;;;;11.20;2.20;;;10.90;99.90;;;;;;5073129;28;20036;-78
2021/12/28 10:00:23;;;;;;;9.02;2.08;;;10.90;99.90;;;;;;5073193;28;20067;-80
2021/12/28 10:02:50;;;;;;;14.48;2.58;;;10.80;99.90;;;;;;5071771;28;20024;-80
2021/12/28 10:05:21;;;;;;;8.65;2.58;;;10.80;99.90;;;;;;5072793;28;20055;-77
2021/12/28 10:07:59;;;;;;;13.82;2.97;;;10.80;99.90;;;;;;5072982;28;20032;-79
2021/12/28 10:10:25;;;;;;;12.27;2.63;;;10.80;99.90;;;;;;5072427;28;20040;-80
2021/12/28 10:12:54;;;;;;;18.58;2.88;;;10.80;99.90;;;;;;5071435;28;20025;-79
2021/12/28 10:15:24;;;;;;;13.23;3.13;;;10.80;99.90;;;;;;5072563;28;20499;-79
2021/12/28 10:17:52;;;;;;;9.48;3.33;;;10.70;99.90;;;;;;5072981;28;20028;-80
2021/12/28 10:20:32;;;;;;;6.05;2.38;;;10.70;99.90;;;;;;5072505;28;20439;-80
2021/12/28 10:23:03;;;;;;;7.35;2.45;;;10.70;99.90;;;;;;5072678;28;20041;-80
2021/12/28 10:25:33;;;;;;;10.43;2.30;;;10.80;99.90;;;;;;5072668;28;20378;-80
2021/12/28 10:28:12;;;;;;;8.38;2.95;;;10.80;99.90;;;;;;5072860;28;20031;-80
2021/12/28 10:30:45;;;;;;;5.63;2.95;;;10.80;99.90;;;;;;5071483;28;20406;-81
2021/12/28 10:33:16;;;;;;;9.40;5.30;;;10.80;99.90;;;;;;5072920;28;20465;-81
2021/12/28 10:35:51;;;;;;;12.85;2.45;;;10.80;99.90;;;;;;5072632;28;20048;-80
2021/12/28 10:38:19;;;;;;;7.68;2.40;;;10.70;99.90;;;;;;5072271;28;20112;-81
2021/12/28 10:40:55;;;;;;;12.10;2.00;;;10.70;99.90;;;;;;5072552;28;20094;-80
2021/12/28 10:43:34;;;;;;;16.38;2.88;;;10.70;99.90;;;;;;5072587;28;20099;-81
2021/12/28 10:46:15;;;;;;;26.65;6.15;;;10.60;99.90;;;;;;5072526;28;20025;-80
2021/12/28 10:48:49;;;;;;;13.75;4.15;;;10.50;99.90;;;;;;5071131;28;20028;-82
2021/12/28 10:51:24;;;;;;;24.42;3.92;;;10.40;99.90;;;;;;5074181;28;20038;-82
2021/12/28 10:54:11;;;;;;;25.92;6.65;;;10.40;99.90;;;;;;5076603;28;20028;-79
2021/12/28 10:56:57;;;;;;;22.90;3.85;;;10.40;99.90;;;;;;5075051;28;20032;-81
2021/12/28 10:59:26;;;;;;;27.25;4.97;;;10.40;99.90;;;;;;5076376;28;20029;-82
2021/12/28 11:01:54;;;;;;;31.35;6.85;;;10.40;99.90;;;;;;5076431;28;20091;-80
2021/12/28 11:04:19;;;;;;;43.90;6.93;;;10.50;99.90;;;;;;5076214;28;20108;-80
2021/12/28 11:06:48;;;;;;;48.75;8.73;;;10.60;99.90;;;;;;5075988;28;20174;-79
2021/12/28 11:09:18;;;;;;;33.83;5.53;;;10.60;99.90;;;;;;5075979;28;20032;-80
2021/12/28 11:11:44;;;;;;;26.52;5.50;;;10.70;99.90;;;;;;5076129;28;20025;-80
2021/12/28 11:14:14;;;;;;;37.72;7.95;;;10.70;99.90;;;;;;5076240;28;20044;-80
2021/12/28 11:16:42;;;;;;;39.60;6.10;;;10.80;99.90;;;;;;5074672;28;20029;-80
2021/12/28 11:19:09;;;;;;;41.33;6.97;;;10.80;99.90;;;;;;5075935;28;20033;-80
2021/12/28 11:21:38;;;;;;;34.53;7.20;;;10.80;99.90;;;;;;5075511;28;20033;-79
2021/12/28 11:24:09;;;;;;;34.33;7.07;;;10.80;99.90;;;;;;5074951;28;20059;-81
2021/12/28 11:26:42;;;;;;;46.97;9.07;;;10.90;99.90;;;;;;5074381;28;20041;-80
2021/12/28 11:29:15;;;;;;;56.13;8.73;;;10.90;99.90;;;;;;5074193;28;20045;-79
2021/12/28 11:31:47;;;;;;;43.13;8.57;;;11.00;99.90;;;;;;5075582;28;20039;-80
2021/12/28 11:34:18;;;;;;;;;;;11.10;99.90;;;;;;5076171;28;20111;-80
2021/12/28 11:36:52;;;;;;;45.95;7.68;;;11.20;99.90;;;;;;5075207;28;19916;-79
2021/12/28 11:39:22;;;;;;;39.10;8.88;;;11.30;99.90;;;;;;5074259;28;20032;-81
2021/12/28 11:41:49;;;;;;;45.75;7.35;;;11.60;99.90;;;;;;5074283;28;20111;-80
2021/12/28 11:44:16;;;;;;;38.85;8.02;;;12.00;99.90;;;;;;5075595;28;20029;-80
2021/12/28 11:46:42;;;;;;;43.08;5.65;;;12.00;99.90;;;;;;5075455;28;20024;-81
2021/12/28 11:49:11;;;;;;;40.17;8.95;;;12.00;99.90;;;;;;5075672;28;20446;-81
2021/12/28 11:51:38;;;;;;;42.30;8.88;;;12.20;99.90;;;;;;5074853;28;20024;-81
2021/12/28 11:54:07;;;;;;;55.42;10.70;;;12.10;99.90;;;;;;5075455;28;20056;-81
2021/12/28 11:56:36;;;;;;;41.15;7.15;;;12.30;99.90;;;;;;5073693;28;20400;-80
2021/12/28 11:59:23;;;;;;;45.70;7.70;;;12.50;99.90;;;;;;5075290;28;20067;-81
2021/12/28 12:01:52;;;;;;;41.03;8.65;;;12.30;99.90;;;;;;5073515;28;20016;-81
2021/12/28 12:04:30;;;;;;;40.22;7.43;;;12.30;99.90;;;;;;5074856;28;20045;-81
2021/12/28 12:07:22;;;;;;;39.80;8.05;;;12.10;99.90;;;;;;5075029;28;20036;-81
2021/12/28 12:09:50;;;;;;;29.60;5.57;;;12.10;99.90;;;;;;5075025;28;20525;-81
2021/12/28 12:12:24;;;;;;;39.88;7.32;;;12.20;99.90;;;;;;5074942;28;20075;-81
2021/12/28 12:14:57;;;;;;;31.98;5.97;;;12.40;99.90;;;;;;5056940;28;20396;-81
2021/12/28 12:17:34;;;;;;;36.42;5.90;;;11.90;99.90;;;;;;5073503;28;20086;-81
2021/12/28 12:20:06;;;;;;;32.42;6.03;;;11.60;99.90;;;;;;5074761;28;20038;-81
2021/12/28 12:22:32;;;;;;;36.47;5.10;;;11.40;99.90;;;;;;5074973;28;20039;-83
2021/12/28 12:25:00;;;;;;;36.88;7.15;;;11.10;99.90;;;;;;5074715;28;20024;-80
2021/12/28 12:27:51;;;;;;;39.42;6.25;;;10.80;99.90;;;;;;5074488;28;20028;-80
2021/12/28 12:30:17;;;;;;;25.47;4.97;;;10.70;99.90;;;;;;5074933;28;20052;-81
2021/12/28 12:33:01;;;;;;;28.45;4.57;;;10.70;99.90;;;;;;5074592;28;20028;-81
2021/12/28 12:35:30;;;;;;;19.48;4.18;;;10.90;99.90;;;;;;5056786;28;20078;-79
2021/12/28 12:37:57;;;;;;;34.33;6.03;;;10.90;99.90;;;;;;5056512;28;20047;-81
2021/12/28 12:40:42;;;;;;;38.28;6.07;;;10.80;99.90;;;;;;5073668;28;20104;-82
2021/12/28 12:43:13;;;;;;;32.97;6.15;;;10.70;99.90;;;;;;5072983;28;20101;-81
2021/12/28 12:46:07;;;;;;;37.03;6.13;;;10.60;99.90;;;;;;5074390;28;20037;-81